Time;durP1;ratioP1;P1;durP2;ratioP2;P2;SDS_P1;SDS_P2;PMS_P1;PMS_P2;Temp;Humidity;BMP_temperature;BMP_pressure;BME280_temperature;BME280_humidity;BME280_pressure;Samples;Min_cycle;Max_cycle;Signal;HPM_P1;HPM_P2
2021/04/17 00:01:58;;;;;;;28.60;16.98;;;103.20;2227.20;;;;;;5072431;28;20044;-65
2021/04/17 00:04:27;;;;;;;83.28;44.03;;;103.10;2227.20;;;;;;5071797;28;20510;-65
2021/04/17 00:06:53;;;;;;;93.55;50.10;;;103.10;2227.20;;;;;;5071964;28;20028;-65
2021/04/17 00:09:26;;;;;;;86.82;45.97;;;103.20;2227.20;;;;;;5071502;28;20446;-66
2021/04/17 00:11:54;;;;;;;85.88;46.75;;;103.20;2227.20;;;;;;5072054;28;20102;-65
2021/04/17 00:14:28;;;;;;;34.78;20.60;;;103.10;2227.20;;;;;;5072019;28;20112;-65
2021/04/17 00:16:54;;;;;;;29.00;16.75;;;102.90;2227.20;;;;;;5071658;28;20025;-65
2021/04/17 00:19:20;;;;;;;26.15;16.02;;;102.80;2227.20;;;;;;5071108;28;20021;-65
2021/04/17 00:21:45;;;;;;;25.13;16.13;;;102.80;2227.20;;;;;;5071885;28;20025;-65
2021/04/17 00:24:11;;;;;;;28.20;16.02;;;102.90;2227.20;;;;;;5071324;28;20039;-66
2021/04/17 00:26:37;;;;;;;32.97;19.52;;;103.00;2227.20;;;;;;5071830;28;20025;-65
2021/04/17 00:29:07;;;;;;;33.80;20.77;;;103.00;2227.20;;;;;;5072579;28;20100;-66
2021/04/17 00:31:36;;;;;;;34.00;21.38;;;103.10;2227.20;;;;;;5085143;28;20067;-66
2021/04/17 00:34:03;;;;;;;28.35;16.70;;;103.10;2227.20;;;;;;5091704;28;20027;-65
2021/04/17 00:36:29;;;;;;;29.05;15.68;;;103.10;2227.20;;;;;;5091960;28;20112;-66
2021/04/17 00:38:55;;;;;;;26.25;14.60;;;103.00;2227.20;;;;;;5090714;28;20020;-65
2021/04/17 00:41:21;;;;;;;26.10;15.13;;;103.00;2227.20;;;;;;5091524;28;20539;-66
2021/04/17 00:43:47;;;;;;;27.67;15.23;;;102.70;2227.20;;;;;;5091413;28;20028;-65
2021/04/17 00:46:13;;;;;;;24.30;14.43;;;102.70;2227.20;;;;;;5091325;28;20019;-69
2021/04/17 00:48:40;;;;;;;22.58;13.73;;;102.60;2227.20;;;;;;5091044;28;20047;-66
2021/04/17 00:51:07;;;;;;;21.02;12.55;;;102.60;2227.20;;;;;;5091238;28;20447;-65
2021/04/17 00:53:33;;;;;;;21.40;13.48;;;102.60;2227.20;;;;;;5091208;28;20028;-65
2021/04/17 00:55:59;;;;;;;23.90;13.80;;;102.60;2227.20;;;;;;5091419;28;20020;-65
2021/04/17 00:58:24;;;;;;;23.45;13.75;;;102.60;2227.20;;;;;;5091038;28;20028;-65
2021/04/17 01:00:50;;;;;;;23.92;13.48;;;102.50;2227.20;;;;;;5091118;28;20028;-65
2021/04/17 01:03:34;;;;;;;23.42;14.02;;;102.50;2227.20;;;;;;5091431;28;20024;-66
2021/04/17 01:06:05;;;;;;;19.75;13.27;;;102.60;2227.20;;;;;;5091195;28;20016;-69
2021/04/17 01:08:44;;;;;;;;;;;102.50;2227.20;;;;;;5091282;28;20028;-66
2021/04/17 01:11:18;;;;;;;23.95;13.40;;;102.50;2227.20;;;;;;5091064;28;19990;-66
2021/04/17 01:13:44;;;;;;;21.45;13.98;;;102.50;2227.20;;;;;;5091348;28;20028;-66
2021/04/17 01:16:10;;;;;;;25.38;14.93;;;102.40;2227.20;;;;;;5088043;28;20028;-65
2021/04/17 01:18:37;;;;;;;23.05;14.60;;;77.60;2227.20;;;;;;5078265;28;20028;-65
2021/04/17 01:21:04;;;;;;;24.48;14.15;;;77.50;2227.20;;;;;;5090854;28;20028;-69
2021/04/17 01:23:44;;;;;;;25.95;15.88;;;77.50;2227.20;;;;;;5090818;28;20032;-65
2021/04/17 01:26:15;;;;;;;25.55;16.00;;;77.60;2227.20;;;;;;5088086;28;20024;-66
2021/04/17 01:28:53;;;;;;;23.38;14.73;;;77.70;2227.20;;;;;;5075594;28;20638;-65
2021/04/17 01:31:23;;;;;;;26.23;16.25;;;77.70;2227.20;;;;;;5064745;28;20476;-65
2021/04/17 01:33:52;;;;;;;28.02;17.17;;;102.40;2227.20;;;;;;5080959;28;20028;-69
2021/04/17 01:36:21;;;;;;;26.40;17.00;;;102.50;2227.20;;;;;;5087257;28;20037;-65
2021/04/17 01:38:48;;;;;;;31.05;18.83;;;102.50;2227.20;;;;;;5090338;28;20032;-65
2021/04/17 01:41:25;;;;;;;34.97;20.75;;;102.60;2227.20;;;;;;5090826;28;20042;-65
2021/04/17 01:43:54;;;;;;;34.38;20.10;;;102.50;2227.20;;;;;;5090550;28;20531;-66
2021/04/17 01:46:23;;;;;;;29.13;17.45;;;102.50;2227.20;;;;;;5090824;28;20087;-65
2021/04/17 01:48:55;;;;;;;26.30;15.85;;;102.60;2227.20;;;;;;5090131;28;20040;-66
2021/04/17 01:51:21;;;;;;;22.25;14.93;;;102.50;2227.20;;;;;;5094869;28;20472;-67
2021/04/17 01:53:49;;;;;;;22.90;14.15;;;102.50;2227.20;;;;;;5094802;28;20024;-66
2021/04/17 01:56:19;;;;;;;24.23;14.48;;;102.60;2227.20;;;;;;5094761;28;20515;-66
2021/04/17 01:58:47;;;;;;;25.55;15.88;;;102.50;2227.20;;;;;;5094458;28;20047;-66
2021/04/17 02:01:17;;;;;;;41.17;19.67;;;102.50;2227.20;;;;;;5094488;28;20491;-64
2021/04/17 02:03:43;;;;;;;96.85;33.78;;;102.60;2227.20;;;;;;5094670;28;20032;-65
2021/04/17 02:06:08;;;;;;;141.23;46.17;;;102.60;2227.20;;;;;;5094576;28;20030;-65
2021/04/17 02:08:37;;;;;;;115.72;39.88;;;102.60;2227.20;;;;;;5094448;28;20024;-66
2021/04/17 02:11:04;;;;;;;50.55;23.73;;;102.70;2227.20;;;;;;5094433;28;20141;-65
2021/04/17 02:13:32;;;;;;;30.25;17.83;;;102.70;2227.20;;;;;;5094463;28;20028;-67
2021/04/17 02:16:02;;;;;;;30.05;16.30;;;102.80;2227.20;;;;;;5094510;28;20031;-65
2021/04/17 02:18:30;;;;;;;26.37;16.17;;;102.80;2227.20;;;;;;5094140;28;20545;-65
2021/04/17 02:21:08;;;;;;;32.53;18.33;;;102.80;2227.20;;;;;;5094623;28;20051;-65
2021/04/17 02:23:36;;;;;;;24.02;14.80;;;102.80;2227.20;;;;;;5093879;28;20476;-65
2021/04/17 02:26:03;;;;;;;32.28;18.77;;;102.80;2227.20;;;;;;5094342;28;20027;-65
2021/04/17 02:28:30;;;;;;;27.67;17.27;;;102.80;2227.20;;;;;;5093156;28;20039;-66
2021/04/17 02:30:57;;;;;;;28.00;16.38;;;102.80;2227.20;;;;;;5084078;28;20020;-65
2021/04/17 02:33:24;;;;;;;30.60;17.35;;;102.80;2227.20;;;;;;5093893;28;20425;-65
2021/04/17 02:35:50;;;;;;;32.22;17.70;;;102.80;2227.20;;;;;;5093943;28;20059;-65
2021/04/17 02:38:17;;;;;;;32.75;17.98;;;102.70;2227.20;;;;;;5093898;28;20183;-64
2021/04/17 02:40:43;;;;;;;30.38;17.27;;;102.40;2227.20;;;;;;5093383;28;20016;-64
2021/04/17 02:43:09;;;;;;;30.67;17.35;;;77.70;2227.20;;;;;;5086380;28;20025;-64
2021/04/17 02:45:35;;;;;;;27.17;15.88;;;77.60;2227.20;;;;;;5080896;28;20016;-68
2021/04/17 02:48:01;;;;;;;27.80;16.83;;;77.60;2227.20;;;;;;5079631;28;20035;-68
2021/04/17 02:50:26;;;;;;;27.55;16.63;;;77.60;2227.20;;;;;;5078558;28;20047;-75
2021/04/17 02:52:53;;;;;;;24.35;14.38;;;77.60;2227.20;;;;;;5081292;28;20373;-70
2021/04/17 02:55:19;;;;;;;24.30;14.25;;;77.50;2227.20;;;;;;5078348;28;20017;-69
2021/04/17 02:57:46;;;;;;;24.55;14.15;;;77.50;2227.20;;;;;;5073588;28;20028;-68
2021/04/17 03:00:14;;;;;;;25.05;15.68;;;77.50;2227.20;;;;;;5077477;28;20021;-64
2021/04/17 03:02:40;;;;;;;28.48;16.88;;;77.40;2227.20;;;;;;5082778;28;20036;-64
2021/04/17 03:05:08;;;;;;;30.65;17.85;;;77.30;2227.20;;;;;;5078640;28;20028;-64
2021/04/17 03:07:34;;;;;;;31.05;16.98;;;77.40;2227.20;;;;;;5080349;28;20063;-69
2021/04/17 03:10:00;;;;;;;25.92;15.63;;;77.50;2227.20;;;;;;5079743;28;20070;-70
2021/04/17 03:12:26;;;;;;;34.35;19.05;;;77.60;2227.20;;;;;;5078957;28;20025;-74
2021/04/17 03:14:52;;;;;;;28.75;17.27;;;77.70;2227.20;;;;;;5081752;28;20419;-64
2021/04/17 03:17:17;;;;;;;41.10;23.45;;;77.50;2227.20;;;;;;5077898;28;20384;-64
2021/04/17 03:19:43;;;;;;;50.50;24.85;;;77.50;2227.20;;;;;;5082366;28;20477;-73
2021/04/17 03:22:09;;;;;;;47.75;22.15;;;77.60;2227.20;;;;;;5077995;28;20516;-65
2021/04/17 03:24:36;;;;;;;42.17;21.17;;;77.70;2227.20;;;;;;5080329;28;20024;-64
2021/04/17 03:27:04;;;;;;;39.97;19.23;;;77.70;2227.20;;;;;;5079484;28;20017;-68
2021/04/17 03:29:30;;;;;;;40.03;20.38;;;77.70;2227.20;;;;;;5078488;28;20481;-69
2021/04/17 03:31:56;;;;;;;32.35;19.10;;;102.40;2227.20;;;;;;5081012;28;20035;-69
2021/04/17 03:34:21;;;;;;;31.25;17.95;;;102.50;2227.20;;;;;;5076798;28;20016;-63
2021/04/17 03:36:48;;;;;;;30.48;17.67;;;102.50;2227.20;;;;;;5092236;28;20039;-64
2021/04/17 03:39:13;;;;;;;29.73;17.40;;;102.50;2227.20;;;;;;5092306;28;20028;-70
2021/04/17 03:41:39;;;;;;;27.95;16.55;;;102.60;2227.20;;;;;;5092773;28;20032;-73
2021/04/17 03:44:05;;;;;;;26.73;16.48;;;102.60;2227.20;;;;;;5092561;28;20023;-73
2021/04/17 03:46:31;;;;;;;28.10;17.48;;;102.60;2227.20;;;;;;5092339;28;20024;-70
2021/04/17 03:48:57;;;;;;;27.60;16.58;;;102.60;2227.20;;;;;;5092358;28;20089;-70
2021/04/17 03:51:23;;;;;;;27.17;16.95;;;102.60;2227.20;;;;;;5092328;28;20055;-74
2021/04/17 03:53:48;;;;;;;27.23;16.52;;;102.70;2227.20;;;;;;5092529;28;20032;-66
2021/04/17 03:56:14;;;;;;;28.40;16.98;;;102.70;2227.20;;;;;;5092445;28;20024;-65
2021/04/17 03:58:40;;;;;;;27.38;16.60;;;102.70;2227.20;;;;;;5092312;28;20493;-75
2021/04/17 04:01:07;;;;;;;29.38;16.27;;;102.70;2227.20;;;;;;5092198;28;20049;-71
2021/04/17 04:03:33;;;;;;;27.48;16.85;;;102.70;2227.20;;;;;;5092150;28;20027;-76
2021/04/17 04:05:59;;;;;;;29.58;17.60;;;102.70;2227.20;;;;;;5092342;28;20451;-71
2021/04/17 04:08:25;;;;;;;27.13;16.63;;;102.70;2227.20;;;;;;5092228;28;20074;-69
2021/04/17 04:10:51;;;;;;;25.77;16.58;;;102.80;2227.20;;;;;;5091587;28;20024;-70
2021/04/17 04:13:17;;;;;;;24.75;16.00;;;102.80;2227.20;;;;;;5091888;28;20099;-64
2021/04/17 04:15:43;;;;;;;26.23;16.17;;;102.80;2227.20;;;;;;5092169;28;20511;-65
2021/04/17 04:18:08;;;;;;;23.77;14.88;;;102.80;2227.20;;;;;;5063746;28;20482;-65
2021/04/17 04:20:34;;;;;;;23.63;14.90;;;102.90;2227.20;;;;;;5091595;28;20101;-70
2021/04/17 04:23:01;;;;;;;24.48;15.40;;;102.90;2227.20;;;;;;5092101;28;20024;-69
2021/04/17 04:25:27;;;;;;;25.70;16.55;;;103.00;2227.20;;;;;;5091793;28;20064;-71
2021/04/17 04:27:53;;;;;;;26.02;16.50;;;103.00;2227.20;;;;;;5091685;28;20455;-69
2021/04/17 04:30:19;;;;;;;24.52;15.23;;;103.00;2227.20;;;;;;5083473;28;20043;-66
2021/04/17 04:32:45;;;;;;;27.65;16.02;;;103.00;2227.20;;;;;;5091650;28;20137;-66
2021/04/17 04:35:11;;;;;;;24.30;15.50;;;103.00;2227.20;;;;;;5091414;28;20039;-67
2021/04/17 04:37:37;;;;;;;25.83;16.13;;;103.10;2227.20;;;;;;5092066;28;20024;-64
2021/04/17 04:40:04;;;;;;;27.13;16.33;;;103.10;2227.20;;;;;;5091444;28;20035;-67
2021/04/17 04:42:30;;;;;;;23.98;15.43;;;103.10;2227.20;;;;;;5091749;28;20031;-65
2021/04/17 04:44:56;;;;;;;24.40;15.80;;;103.10;2227.20;;;;;;5091877;28;20020;-65
2021/04/17 04:47:22;;;;;;;26.40;16.23;;;103.10;2227.20;;;;;;5091368;28;20016;-66
2021/04/17 04:49:48;;;;;;;25.85;15.93;;;103.30;2227.20;;;;;;5091048;28;20040;-70
2021/04/17 04:52:14;;;;;;;25.40;15.20;;;103.30;2227.20;;;;;;5091022;28;20031;-71
2021/04/17 04:54:40;;;;;;;26.50;15.57;;;128.00;2252.80;;;;;;5091558;28;20499;-69
2021/04/17 04:57:06;;;;;;;26.70;15.95;;;128.00;2252.80;;;;;;5091118;28;20028;-67
2021/04/17 04:59:32;;;;;;;23.63;14.82;;;128.10;2252.80;;;;;;5091046;28;20544;-66
2021/04/17 05:01:57;;;;;;;23.52;14.70;;;128.20;2252.80;;;;;;5091185;28;20120;-65
2021/04/17 05:04:23;;;;;;;25.55;14.98;;;128.20;2252.80;;;;;;5091263;28;20491;-70
2021/04/17 05:06:49;;;;;;;23.45;14.32;;;128.40;2252.80;;;;;;5091222;28;20374;-69
2021/04/17 05:09:15;;;;;;;31.08;19.23;;;128.40;2252.80;;;;;;5090522;28;20028;-70
2021/04/17 05:11:40;;;;;;;32.08;18.83;;;128.40;2252.80;;;;;;5091105;28;20039;-65
2021/04/17 05:14:06;;;;;;;26.38;16.67;;;128.50;2252.80;;;;;;5090905;28;20024;-65
2021/04/17 05:16:32;;;;;;;23.92;13.95;;;128.60;2252.80;;;;;;5090911;28;20110;-65
2021/04/17 05:18:58;;;;;;;20.88;13.85;;;128.70;2252.80;;;;;;5091100;28;20069;-66
2021/04/17 05:21:23;;;;;;;21.90;12.98;;;128.80;2252.80;;;;;;5090731;28;20457;-65
2021/04/17 05:23:49;;;;;;;26.63;15.38;;;128.70;2252.80;;;;;;5090228;28;20039;-65
2021/04/17 05:26:15;;;;;;;24.98;15.27;;;128.90;2252.80;;;;;;5090409;28;20131;-65
2021/04/17 05:28:41;;;;;;;29.90;18.15;;;153.60;2252.80;;;;;;5088098;28;20107;-66
2021/04/17 05:31:06;;;;;;;25.80;16.88;;;153.70;2252.80;;;;;;5085324;28;20052;-65
2021/04/17 05:33:32;;;;;;;30.90;17.75;;;153.90;2252.80;;;;;;5090925;28;20069;-65
2021/04/17 05:35:58;;;;;;;29.65;17.75;;;154.00;2252.80;;;;;;5090609;28;20062;-66
2021/04/17 05:38:24;;;;;;;32.08;17.67;;;154.10;2252.80;;;;;;5090636;28;20028;-66
2021/04/17 05:40:49;;;;;;;30.77;18.33;;;154.20;2252.80;;;;;;5090800;28;20056;-65
2021/04/17 05:43:15;;;;;;;38.80;21.10;;;154.40;2252.80;;;;;;5090663;28;20028;-70
2021/04/17 05:45:41;;;;;;;37.53;21.67;;;154.50;2252.80;;;;;;5090752;28;20024;-66
2021/04/17 05:48:07;;;;;;;42.33;22.80;;;154.40;2252.80;;;;;;5090698;28;20020;-66
2021/04/17 05:50:33;;;;;;;29.27;17.95;;;179.20;2252.80;;;;;;5090109;28;20500;-66
2021/04/17 05:52:59;;;;;;;29.45;16.85;;;179.20;2252.80;;;;;;5090697;28;20035;-66
2021/04/17 05:55:24;;;;;;;30.13;18.13;;;179.20;2252.80;;;;;;5090516;28;20020;-70
2021/04/17 05:57:50;;;;;;;27.58;16.45;;;179.30;2227.20;;;;;;5090708;28;20076;-69
2021/04/17 06:00:16;;;;;;;27.25;15.70;;;179.30;2252.80;;;;;;5090008;28;20162;-66
2021/04/17 06:02:42;;;;;;;27.67;16.35;;;179.30;2252.80;;;;;;5090463;28;20523;-66
2021/04/17 06:05:08;;;;;;;29.45;17.30;;;179.40;2252.80;;;;;;5090584;28;20020;-65
2021/04/17 06:07:34;;;;;;;25.50;14.90;;;179.40;2252.80;;;;;;5090378;28;20016;-66
2021/04/17 06:10:00;;;;;;;30.92;16.48;;;179.50;2201.60;;;;;;5090365;28;20042;-66
2021/04/17 06:12:26;;;;;;;33.88;16.60;;;179.60;2176.00;;;;;;5090242;28;20138;-66
2021/04/17 06:14:52;;;;;;;32.03;17.15;;;179.70;2150.40;;;;;;5090530;28;20024;-69
2021/04/17 06:17:17;;;;;;;30.67;16.08;;;179.80;2176.00;;;;;;5090533;28;20035;-66
2021/04/17 06:19:43;;;;;;;27.50;16.33;;;180.00;2099.20;;;;;;5090437;28;20411;-65
2021/04/17 06:22:09;;;;;;;22.20;13.07;;;180.10;2048.00;;;;;;5090240;28;20028;-66
2021/04/17 06:24:34;;;;;;;22.00;13.18;;;180.10;2022.40;;;;;;5090008;28;20035;-66
2021/04/17 06:27:00;;;;;;;22.20;14.07;;;204.90;2073.60;;;;;;5090127;28;20031;-66
2021/04/17 06:29:26;;;;;;;18.10;12.07;;;204.80;2048.00;;;;;;5082109;28;20025;-66
2021/04/17 06:31:52;;;;;;;21.58;12.32;;;204.90;2048.00;;;;;;5088874;28;20490;-66
2021/04/17 06:34:17;;;;;;;19.33;12.52;;;205.00;2048.00;;;;;;5090333;28;20024;-66
2021/04/17 06:36:44;;;;;;;21.50;13.70;;;205.10;2048.00;;;;;;5092762;28;20477;-65
2021/04/17 06:39:10;;;;;;;22.83;13.93;;;205.20;2022.40;;;;;;5093958;28;20112;-66
2021/04/17 06:41:40;;;;;;;24.60;16.50;;;205.30;2022.40;;;;;;5094256;28;20063;-65
2021/04/17 06:44:07;;;;;;;20.40;13.38;;;205.40;2022.40;;;;;;5093582;28;20111;-66
2021/04/17 06:46:35;;;;;;;18.98;12.80;;;205.60;1996.80;;;;;;5093676;28;20060;-66
2021/04/17 06:49:03;;;;;;;23.23;17.20;;;205.50;1945.60;;;;;;5093291;28;20054;-67
2021/04/17 06:51:30;;;;;;;22.08;16.38;;;205.40;1971.20;;;;;;5092198;28;20502;-66
2021/04/17 06:53:56;;;;;;;23.98;12.90;;;205.40;1945.60;;;;;;5093134;28;20035;-67
2021/04/17 06:56:25;;;;;;;19.05;13.63;;;205.60;1971.20;;;;;;5073724;28;20447;-67
2021/04/17 06:58:51;;;;;;;22.70;15.75;;;205.70;1920.00;;;;;;5079891;28;20033;-70
2021/04/17 07:01:17;;;;;;;19.63;13.05;;;205.60;1894.40;;;;;;5083651;28;20032;-66
2021/04/17 07:03:43;;;;;;;18.58;12.00;;;205.60;1920.00;;;;;;5078975;28;20430;-70
2021/04/17 07:06:09;;;;;;;17.77;11.85;;;205.60;1945.60;;;;;;5084413;28;20077;-65
2021/04/17 07:08:42;;;;;;;19.67;13.32;;;205.60;1945.60;;;;;;5078879;28;20427;-66
2021/04/17 07:11:08;;;;;;;20.35;13.30;;;205.70;1920.00;;;;;;5083172;28;20130;-66
2021/04/17 07:13:34;;;;;;;18.15;13.07;;;230.40;1971.20;;;;;;5080173;28;20012;-66
2021/04/17 07:16:11;;;;;;;21.17;13.23;;;230.50;1971.20;;;;;;5081415;28;20028;-67
2021/04/17 07:18:39;;;;;;;18.80;12.57;;;230.60;1996.80;;;;;;5080413;28;20536;-66
2021/04/17 07:21:13;;;;;;;19.27;12.75;;;230.70;1971.20;;;;;;5080121;28;20036;-69
2021/04/17 07:23:42;;;;;;;37.63;22.65;;;230.90;1971.20;;;;;;5080916;28;20031;-67
2021/04/17 07:26:11;;;;;;;23.77;14.82;;;230.90;1971.20;;;;;;5079000;28;20021;-66
2021/04/17 07:28:40;;;;;;;22.95;16.02;;;230.90;1996.80;;;;;;5081471;28;20039;-65
2021/04/17 07:31:07;;;;;;;20.52;13.98;;;230.70;2022.40;;;;;;5079157;28;20154;-65
2021/04/17 07:33:33;;;;;;;20.95;12.23;;;230.80;2022.40;;;;;;5083475;28;20020;-65
2021/04/17 07:36:02;;;;;;;17.55;11.85;;;230.80;2048.00;;;;;;5085651;28;20039;-65
2021/04/17 07:38:38;;;;;;;17.98;12.10;;;230.90;2022.40;;;;;;5092319;28;20036;-67
2021/04/17 07:41:19;;;;;;;16.20;11.43;;;230.90;1971.20;;;;;;5093006;28;20461;-65
2021/04/17 07:44:03;;;;;;;21.02;14.32;;;230.90;1971.20;;;;;;5092386;28;20035;-65
2021/04/17 07:46:40;;;;;;;49.28;30.92;;;230.70;1996.80;;;;;;5068671;28;20025;-65
2021/04/17 07:49:18;;;;;;;17.20;11.05;;;230.40;2048.00;;;;;;5082050;28;20048;-69
2021/04/17 07:52:15;;;;;;;16.77;11.60;;;205.70;2048.00;;;;;;5078175;28;20045;-69
2021/04/17 07:55:04;;;;;;;16.02;12.95;;;205.60;2073.60;;;;;;5074916;28;20075;-68
2021/04/17 07:57:37;;;;;;;16.10;10.38;;;205.70;2099.20;;;;;;5081708;28;20016;-65
2021/04/17 08:00:09;;;;;;;13.75;10.13;;;230.40;2099.20;;;;;;5078074;28;20020;-66
2021/04/17 08:02:36;;;;;;;20.40;12.48;;;230.50;2048.00;;;;;;5081243;28;20559;-65
2021/04/17 08:05:04;;;;;;;14.02;10.18;;;230.40;2022.40;;;;;;5078773;28;20051;-66
2021/04/17 08:07:32;;;;;;;17.88;11.25;;;230.60;2073.60;;;;;;5079499;28;20024;-69
2021/04/17 08:10:00;;;;;;;24.52;17.88;;;230.70;2048.00;;;;;;5079344;28;20410;-66
2021/04/17 08:12:26;;;;;;;18.10;12.18;;;231.00;2048.00;;;;;;5077423;28;20100;-65
2021/04/17 08:14:53;;;;;;;22.10;15.00;;;230.60;2048.00;;;;;;5080677;28;20031;-65
2021/04/17 08:17:20;;;;;;;23.80;14.90;;;230.50;2073.60;;;;;;5054084;28;20392;-65
2021/04/17 08:19:46;;;;;;;25.67;17.15;;;230.60;2073.60;;;;;;5055672;28;20474;-66
2021/04/17 08:22:14;;;;;;;21.73;14.25;;;230.70;2048.00;;;;;;5052219;28;20436;-65
2021/04/17 08:24:40;;;;;;;20.15;13.05;;;230.80;2073.60;;;;;;5052362;28;20029;-64
2021/04/17 08:27:06;;;;;;;20.27;14.25;;;230.70;1996.80;;;;;;5052957;28;20024;-65
2021/04/17 08:30:06;;;;;;;59.53;34.97;;;230.90;2073.60;;;;;;5055205;28;20021;-65
2021/04/17 08:32:46;;;;;;;23.58;15.63;;;230.80;2073.60;;;;;;5047765;28;20039;-65
2021/04/17 08:35:16;;;;;;;17.48;12.48;;;230.60;2124.80;;;;;;5065216;28;20075;-65
2021/04/17 08:37:52;;;;;;;22.05;14.82;;;205.30;2150.40;;;;;;5053941;28;20033;-66
2021/04/17 08:40:35;;;;;;;39.53;26.00;;;205.30;2201.60;;;;;;5054100;28;20067;-65
2021/04/17 08:43:03;;;;;;;40.67;29.20;;;205.40;2227.20;;;;;;5052187;28;20040;-65
2021/04/17 08:45:29;;;;;;;45.72;26.65;;;205.40;2252.80;;;;;;5070305;28;20481;-68
2021/04/17 08:47:58;;;;;;;32.85;21.02;;;205.40;2252.80;;;;;;5053696;28;20029;-69
2021/04/17 08:50:40;;;;;;;22.05;15.63;;;205.70;2176.00;;;;;;5054136;28;20029;-64
2021/04/17 08:53:17;;;;;;;15.50;12.05;;;205.70;2176.00;;;;;;5052278;28;20017;-67
2021/04/17 08:55:51;;;;;;;13.73;8.60;;;230.50;2227.20;;;;;;5051223;28;20040;-65
2021/04/17 08:58:18;;;;;;;13.60;10.25;;;230.50;2150.40;;;;;;5055489;28;20021;-65
2021/04/17 09:01:05;;;;;;;15.63;9.68;;;230.40;2227.20;;;;;;5058733;28;20028;-65
2021/04/17 09:03:39;;;;;;;16.00;11.73;;;230.50;2150.40;;;;;;5060516;28;20104;-65
2021/04/17 09:06:07;;;;;;;13.27;9.80;;;230.60;2201.60;;;;;;5055576;28;20021;-64
2021/04/17 09:08:39;;;;;;;10.20;7.10;;;230.60;2150.40;;;;;;5051503;28;20025;-68
2021/04/17 09:11:34;;;;;;;11.50;7.53;;;230.40;2124.80;;;;;;5050081;28;20147;-70
2021/04/17 09:14:00;;;;;;;32.58;19.50;;;205.60;2150.40;;;;;;5054196;28;20021;-66
2021/04/17 09:16:41;;;;;;;30.63;18.13;;;205.70;2176.00;;;;;;5057963;28;20020;-65
2021/04/17 09:19:07;;;;;;;36.08;21.90;;;230.40;2201.60;;;;;;5052244;28;20831;-65
2021/04/17 09:21:33;;;;;;;13.77;8.77;;;230.40;2201.60;;;;;;5051466;28;20061;-65
2021/04/17 09:24:03;;;;;;;25.65;15.15;;;230.60;2176.00;;;;;;5050748;28;20025;-65
2021/04/17 09:26:34;;;;;;;12.80;8.60;;;230.60;2252.80;;;;;;5051137;28;20043;-65
2021/04/17 09:29:05;;;;;;;20.05;15.07;;;230.80;2252.80;;;;;;5056267;28;20385;-66
2021/04/17 09:31:38;;;;;;;21.00;14.65;;;230.60;2252.80;;;;;;5058702;28;20055;-66
2021/04/17 09:34:15;;;;;;;14.80;11.43;;;230.60;2227.20;;;;;;5054569;28;20440;-65
2021/04/17 09:36:42;;;;;;;31.60;16.30;;;230.70;2252.80;;;;;;5054825;28;20102;-64
2021/04/17 09:39:32;;;;;;;17.70;11.02;;;230.70;2227.20;;;;;;5064981;28;20028;-66
2021/04/17 09:42:04;;;;;;;12.70;8.00;;;230.60;2252.80;;;;;;5054879;28;20025;-64
2021/04/17 09:44:44;;;;;;;11.30;7.03;;;230.60;2252.80;;;;;;5062800;28;20078;-65
2021/04/17 09:47:13;;;;;;;22.80;13.00;;;230.60;2252.80;;;;;;5061574;28;20113;-64
2021/04/17 09:49:45;;;;;;;16.75;9.27;;;230.50;2252.80;;;;;;5050931;28;20428;-66
2021/04/17 09:52:16;;;;;;;18.52;11.02;;;230.50;2252.80;;;;;;5055252;28;20024;-65
2021/04/17 09:54:43;;;;;;;8.57;6.00;;;230.50;2252.80;;;;;;5063825;28;20104;-65
2021/04/17 09:57:10;;;;;;;9.88;6.57;;;230.60;2252.80;;;;;;5056704;28;20087;-65
2021/04/17 09:59:36;;;;;;;11.90;8.57;;;230.60;2252.80;;;;;;5059227;28;20075;-65
2021/04/17 10:02:03;;;;;;;16.48;10.90;;;230.50;2252.80;;;;;;5054714;28;20075;-65
2021/04/17 10:04:47;;;;;;;15.32;10.27;;;230.50;2252.80;;;;;;5057465;28;20044;-65
2021/04/17 10:07:14;;;;;;;15.65;11.40;;;230.50;2252.80;;;;;;5052748;28;20488;-65
2021/04/17 10:09:39;;;;;;;19.52;12.73;;;230.60;2252.80;;;;;;5075161;28;20039;-65
2021/04/17 10:12:08;;;;;;;21.15;13.60;;;230.60;2252.80;;;;;;5054530;28;20017;-64
2021/04/17 10:14:34;;;;;;;12.77;9.23;;;230.60;2252.80;;;;;;5058316;28;20029;-64
2021/04/17 10:17:01;;;;;;;15.32;10.15;;;230.50;2252.80;;;;;;5053880;28;20108;-65
2021/04/17 10:19:29;;;;;;;15.90;12.05;;;230.40;2252.80;;;;;;5055404;28;20060;-65
2021/04/17 10:21:58;;;;;;;17.75;12.10;;;205.70;2252.80;;;;;;5053912;28;20013;-65
2021/04/17 10:24:28;;;;;;;13.40;9.77;;;205.60;2252.80;;;;;;5079465;28;20028;-65
2021/04/17 10:26:59;;;;;;;12.82;9.77;;;205.60;2252.80;;;;;;5084170;28;20020;-65
2021/04/17 10:29:49;;;;;;;18.45;13.68;;;205.60;2252.80;;;;;;5075677;28;20028;-65
2021/04/17 10:32:37;;;;;;;16.47;11.03;;;205.60;2252.80;;;;;;5079946;28;20033;-66
2021/04/17 10:35:03;;;;;;;13.38;9.63;;;205.70;2252.80;;;;;;5084915;28;20757;-66
2021/04/17 10:37:37;;;;;;;13.82;10.27;;;205.60;2252.80;;;;;;5093855;28;20039;-65
2021/04/17 10:40:11;;;;;;;14.57;10.68;;;205.60;2252.80;;;;;;5093477;28;20047;-66
2021/04/17 10:42:46;;;;;;;11.60;8.95;;;205.60;2252.80;;;;;;5094229;28;20432;-68
2021/04/17 10:45:16;;;;;;;17.63;12.52;;;205.50;2252.80;;;;;;5093296;28;20035;-65
2021/04/17 10:47:42;;;;;;;16.42;11.50;;;205.50;2252.80;;;;;;5092259;28;20107;-64
2021/04/17 10:50:23;;;;;;;15.90;12.20;;;205.40;2252.80;;;;;;5093249;28;20044;-64
2021/04/17 10:52:57;;;;;;;16.05;10.85;;;205.30;2252.80;;;;;;5068519;28;20041;-65
2021/04/17 10:55:30;;;;;;;20.98;14.13;;;205.30;2252.80;;;;;;5093424;28;20035;-65
2021/04/17 10:57:56;;;;;;;15.50;12.30;;;205.30;2252.80;;;;;;5093690;28;20444;-64
2021/04/17 11:00:28;;;;;;;14.95;11.95;;;205.20;2252.80;;;;;;5093062;28;20035;-65
2021/04/17 11:02:54;;;;;;;17.25;13.73;;;205.10;2252.80;;;;;;5093491;28;20024;-70
2021/04/17 11:05:20;;;;;;;16.38;11.85;;;205.20;2252.80;;;;;;5093377;28;20031;-64
2021/04/17 11:07:46;;;;;;;13.25;10.20;;;205.20;2252.80;;;;;;5093106;28;20115;-65
2021/04/17 11:10:12;;;;;;;12.95;9.77;;;205.30;2252.80;;;;;;5087578;28;20028;-64
2021/04/17 11:12:39;;;;;;;14.05;10.18;;;205.30;2252.80;;;;;;5085850;28;20012;-65
2021/04/17 11:15:18;;;;;;;14.82;10.82;;;205.30;2252.80;;;;;;5088977;28;20476;-65
2021/04/17 11:18:07;;;;;;;13.77;10.48;;;205.30;2252.80;;;;;;5085758;28;20054;-65
2021/04/17 11:20:52;;;;;;;13.93;10.18;;;205.30;2252.80;;;;;;5086759;28;20028;-65
2021/04/17 11:23:47;;;;;;;12.27;9.82;;;205.20;2252.80;;;;;;5088262;28;20032;-70
2021/04/17 11:26:24;;;;;;;13.00;10.23;;;205.10;2252.80;;;;;;5084578;28;20511;-66
2021/04/17 11:28:56;;;;;;;14.23;10.57;;;205.10;2252.80;;;;;;5084188;28;20028;-65
2021/04/17 11:31:34;;;;;;;16.10;11.73;;;205.10;2252.80;;;;;;5085317;28;20392;-66
2021/04/17 11:34:02;;;;;;;13.75;9.82;;;205.20;2252.80;;;;;;5087250;28;20499;-66
2021/04/17 11:36:31;;;;;;;13.27;10.57;;;205.20;2252.80;;;;;;5089696;28;20489;-66
2021/04/17 11:38:57;;;;;;;13.48;10.05;;;205.20;2252.80;;;;;;5092793;28;20380;-65
2021/04/17 11:41:24;;;;;;;14.70;10.63;;;205.30;2252.80;;;;;;5092668;28;20102;-66
2021/04/17 11:43:49;;;;;;;14.73;11.10;;;205.30;2252.80;;;;;;5092961;28;20051;-64
2021/04/17 11:46:17;;;;;;;16.75;13.20;;;205.30;2252.80;;;;;;5092487;28;20488;-64
2021/04/17 11:48:47;;;;;;;15.20;11.27;;;205.30;2252.80;;;;;;5092293;28;20016;-64
2021/04/17 11:51:13;;;;;;;13.77;10.37;;;205.20;2252.80;;;;;;5092222;28;20044;-65
2021/04/17 11:53:38;;;;;;;13.25;9.90;;;205.30;2252.80;;;;;;5092575;28;20105;-65
2021/04/17 11:56:05;;;;;;;12.13;8.93;;;205.20;2252.80;;;;;;5078822;28;20055;-66
2021/04/17 11:58:31;;;;;;;15.68;10.85;;;205.20;2252.80;;;;;;5080932;28;20507;-66
2021/04/17 12:00:57;;;;;;;13.32;9.95;;;205.20;2252.80;;;;;;5083978;28;20024;-64
2021/04/17 12:03:23;;;;;;;11.20;9.18;;;205.20;2252.80;;;;;;5081506;28;20031;-65
2021/04/17 12:05:53;;;;;;;12.90;9.98;;;205.20;2252.80;;;;;;5082083;28;20024;-66
2021/04/17 12:08:20;;;;;;;13.13;9.85;;;205.20;2252.80;;;;;;5084868;28;20107;-65
2021/04/17 12:10:49;;;;;;;16.55;12.55;;;205.30;2252.80;;;;;;5090730;28;20047;-65